createdAt,value
2018-05-08T00:00:47.679Z,0
2018-05-08T00:01:57.425Z,0
2018-05-08T00:03:07.433Z,0
2018-05-08T00:04:17.450Z,0
2018-05-08T00:05:27.462Z,0
2018-05-08T00:06:37.475Z,0
2018-05-08T00:07:47.219Z,0
2018-05-08T00:08:57.087Z,0
2018-05-08T00:10:07.114Z,0
2018-05-08T00:11:16.854Z,0
2018-05-08T00:12:26.874Z,0
2018-05-08T00:13:36.615Z,0
2018-05-08T00:14:46.361Z,0
2018-05-08T00:15:56.379Z,0
2018-05-08T00:17:06.401Z,0
2018-05-08T00:18:16.153Z,0
2018-05-08T00:19:26.228Z,0
2018-05-08T00:20:36.254Z,0
2018-05-08T00:21:46.263Z,0
2018-05-08T00:22:56.271Z,0
2018-05-08T00:24:06.018Z,0
2018-05-08T00:25:16.031Z,0
2018-05-08T00:26:25.770Z,0
2018-05-08T00:27:35.516Z,0
2018-05-08T00:28:45.521Z,0
2018-05-08T00:29:55.540Z,0
2018-05-08T00:31:05.567Z,0
2018-05-08T00:32:15.312Z,0
2018-05-08T00:33:25.056Z,0
2018-05-08T00:34:35.066Z,0
2018-05-08T00:35:45.084Z,0
2018-05-08T00:36:54.567Z,0
2018-05-08T00:38:04.384Z,0
2018-05-08T00:39:14.129Z,0
2018-05-08T00:40:24.163Z,0
2018-05-08T00:41:33.945Z,0
2018-05-08T00:42:44.032Z,0
2018-05-08T00:43:54.046Z,0
2018-05-08T00:45:03.802Z,0
2018-05-08T00:46:13.550Z,0
2018-05-08T00:47:23.559Z,0
2018-05-08T00:48:33.301Z,0
2018-05-08T00:49:43.048Z,0
2018-05-08T00:50:52.790Z,0
2018-05-08T00:52:02.795Z,0
2018-05-08T00:53:12.534Z,0
2018-05-08T00:54:21.742Z,0
2018-05-08T00:55:31.216Z,0
2018-05-08T00:56:40.962Z,0
2018-05-08T00:57:50.976Z,0
2018-05-08T00:59:00.985Z,0
2018-05-08T01:00:10.734Z,0
2018-05-08T01:01:20.216Z,0
2018-05-08T01:02:29.698Z,0
2018-05-08T01:03:39.724Z,0
2018-05-08T01:04:49.796Z,0
2018-05-08T01:05:59.564Z,0
2018-05-08T01:07:09.584Z,0
2018-05-08T01:08:19.059Z,0
2018-05-08T01:09:28.542Z,0
2018-05-08T01:10:38.558Z,0
2018-05-08T01:11:48.424Z,0
2018-05-08T01:12:58.171Z,0
2018-05-08T01:14:07.913Z,0
2018-05-08T01:15:17.921Z,0
2018-05-08T01:16:27.932Z,0
2018-05-08T01:17:38.031Z,0
2018-05-08T01:18:47.773Z,0
2018-05-08T01:19:57.783Z,0
2018-05-08T01:21:07.259Z,0
2018-05-08T01:22:17.281Z,0
2018-05-08T01:23:27.296Z,0
2018-05-08T01:24:37.304Z,0
2018-05-08T01:25:47.317Z,0
2018-05-08T01:26:57.067Z,0
2018-05-08T01:28:06.552Z,0
2018-05-08T01:29:16.642Z,0
2018-05-08T01:30:26.651Z,0
2018-05-08T01:31:36.842Z,0
2018-05-08T01:32:46.743Z,0
2018-05-08T01:33:56.489Z,0
2018-05-08T01:35:06.500Z,0
2018-05-08T01:36:16.514Z,0
2018-05-08T01:37:26.263Z,0
2018-05-08T01:38:35.742Z,0
2018-05-08T01:39:45.490Z,0
2018-05-08T01:40:55.248Z,0
2018-05-08T01:42:04.726Z,0
2018-05-08T01:43:14.779Z,0
2018-05-08T01:44:24.596Z,0
2018-05-08T01:45:34.078Z,0
2018-05-08T01:46:43.821Z,0
2018-05-08T01:47:53.833Z,0
2018-05-08T01:49:03.590Z,0
2018-05-08T01:50:13.613Z,0
2018-05-08T01:51:23.624Z,0
2018-05-08T01:52:33.645Z,0
2018-05-08T01:53:43.660Z,0
2018-05-08T01:54:53.406Z,0
2018-05-08T01:56:03.156Z,0
2018-05-08T01:57:13.171Z,0
2018-05-08T01:58:23.278Z,0
2018-05-08T01:59:33.283Z,0
2018-05-08T02:00:43.034Z,0
2018-05-08T02:01:53.042Z,4
2018-05-08T02:03:02.784Z,4
2018-05-08T02:04:12.533Z,4
2018-05-08T02:05:22.545Z,4
2018-05-08T02:06:32.557Z,4
2018-05-08T02:07:42.567Z,0
2018-05-08T02:08:52.577Z,4
2018-05-08T02:10:02.588Z,4
2018-05-08T02:11:12.338Z,4
2018-05-08T02:12:22.093Z,4
2018-05-08T02:13:31.833Z,4
2018-05-08T02:14:41.849Z,8
2018-05-08T02:15:51.593Z,4
2018-05-08T02:17:01.608Z,8
2018-05-08T02:18:11.098Z,8
2018-05-08T02:19:21.103Z,8
2018-05-08T02:20:31.477Z,8
2018-05-08T02:21:41.544Z,12
2018-05-08T02:22:50.792Z,12
2018-05-08T02:24:00.576Z,16
2018-05-08T02:25:10.329Z,16
2018-05-08T02:26:19.807Z,16
2018-05-08T02:27:29.650Z,20
2018-05-08T02:28:39.413Z,24
2018-05-08T02:29:48.887Z,28
2018-05-08T02:30:58.364Z,28
2018-05-08T02:32:07.855Z,32
2018-05-08T02:33:17.531Z,36
2018-05-08T02:34:27.613Z,36
2018-05-08T02:35:37.640Z,40
2018-05-08T02:36:47.650Z,48
2018-05-08T02:37:57.394Z,52
2018-05-08T02:39:07.154Z,56
2018-05-08T02:40:16.906Z,64
2018-05-08T02:41:26.923Z,72
2018-05-08T02:42:36.946Z,76
2018-05-08T02:43:46.426Z,80
2018-05-08T02:44:55.903Z,92
2018-05-08T02:46:05.658Z,100
2018-05-08T02:47:15.411Z,108
2018-05-08T02:48:25.450Z,116
2018-05-08T02:49:34.663Z,128
2018-05-08T02:50:44.149Z,140
2018-05-08T02:51:53.898Z,148
2018-05-08T02:53:03.908Z,164
2018-05-08T02:54:13.391Z,172
2018-05-08T02:55:23.154Z,184
2018-05-08T02:56:32.908Z,196
2018-05-08T02:57:42.395Z,212
2018-05-08T02:58:52.147Z,224
2018-05-08T03:00:01.903Z,236
2018-05-08T03:03:44.084Z,280
2018-05-08T03:04:53.835Z,296
2018-05-08T03:06:03.874Z,316
2018-05-08T03:07:13.898Z,336
2018-05-08T03:08:23.912Z,360
2018-05-08T03:09:33.394Z,384
2018-05-08T03:10:43.157Z,412
2018-05-08T03:11:53.175Z,432
2018-05-08T03:13:02.661Z,456
2018-05-08T03:14:12.412Z,480
2018-05-08T03:15:22.162Z,504
2018-05-08T03:16:31.910Z,524
2018-05-08T03:17:41.383Z,548
2018-05-08T03:18:51.127Z,568
2018-05-08T03:20:01.146Z,588
2018-05-08T03:21:10.640Z,612
2018-05-08T03:22:20.825Z,636
2018-05-08T03:23:30.892Z,660
2018-05-08T03:24:40.363Z,688
2018-05-08T03:25:50.103Z,720
2018-05-08T03:26:59.844Z,760
2018-05-08T03:28:09.594Z,804
2018-05-08T03:29:19.350Z,856
2018-05-08T03:30:29.092Z,912
2018-05-08T03:31:38.581Z,976
2018-05-08T03:32:48.393Z,1060
2018-05-08T03:33:57.870Z,1144
2018-05-08T03:35:07.633Z,1224
2018-05-08T03:36:17.648Z,1312
2018-05-08T03:37:27.657Z,1368
2018-05-08T03:38:37.672Z,1416
2018-05-08T03:39:47.691Z,1404
2018-05-08T03:40:57.165Z,1400
2018-05-08T03:42:07.188Z,1400
2018-05-08T03:43:17.221Z,1384
2018-05-08T03:44:26.963Z,1396
2018-05-08T03:45:36.709Z,1440
2018-05-08T03:46:46.748Z,1508
2018-05-08T03:47:56.509Z,1548
2018-05-08T03:49:06.253Z,1556
2018-05-08T03:50:16.258Z,1556
2018-05-08T03:51:26.273Z,1576
2018-05-08T03:52:36.324Z,1620
2018-05-08T03:53:46.331Z,1644
2018-05-08T03:54:56.074Z,1656
2018-05-08T03:56:06.083Z,1660
2018-05-08T03:57:15.874Z,1696
2018-05-08T03:58:25.962Z,1740
2018-05-08T03:59:35.979Z,1784
2018-05-08T04:00:45.989Z,1832
2018-05-08T04:01:56.000Z,1880
2018-05-08T04:03:06.016Z,1924
2018-05-08T04:04:16.033Z,1968
2018-05-08T04:05:26.054Z,2008
2018-05-08T04:06:36.060Z,2052
2018-05-08T04:07:45.805Z,2112
2018-05-08T04:08:55.823Z,2180
2018-05-08T04:10:05.302Z,2252
2018-05-08T04:11:14.788Z,2320
2018-05-08T04:12:24.261Z,2380
2018-05-08T04:13:33.742Z,2420
2018-05-08T04:14:43.749Z,2468
2018-05-08T04:15:53.492Z,2492
2018-05-08T04:17:03.545Z,2508
2018-05-08T04:18:13.552Z,2528
2018-05-08T04:19:23.308Z,2572
2018-05-08T04:20:33.048Z,2656
2018-05-08T04:21:43.063Z,2724
2018-05-08T04:22:53.074Z,2740
2018-05-08T04:24:03.099Z,2776
2018-05-08T04:25:12.891Z,2796
2018-05-08T04:26:22.362Z,2856
2018-05-08T04:27:32.377Z,2956
2018-05-08T04:28:42.475Z,3072
2018-05-08T04:29:52.488Z,3196
2018-05-08T04:31:02.501Z,3280
2018-05-08T04:32:12.520Z,3332
2018-05-08T04:33:22.535Z,3316
2018-05-08T04:34:32.677Z,3200
2018-05-08T04:35:42.682Z,3036
2018-05-08T04:36:52.431Z,2948
2018-05-08T04:38:02.179Z,2936
2018-05-08T04:39:11.389Z,2928
2018-05-08T04:40:21.407Z,2924
2018-05-08T04:41:31.420Z,2944
2018-05-08T04:42:41.163Z,2968
2018-05-08T04:43:51.177Z,3008
2018-05-08T04:45:00.653Z,3036
2018-05-08T04:46:10.670Z,3072
2018-05-08T04:47:20.790Z,3116
2018-05-08T04:48:30.855Z,3156
2018-05-08T04:49:40.604Z,3204
2018-05-08T04:50:50.348Z,3268
2018-05-08T04:52:00.364Z,3288
2018-05-08T04:53:09.847Z,3272
2018-05-08T04:54:19.593Z,3268
2018-05-08T04:55:29.605Z,3256
2018-05-08T04:56:39.613Z,3376
2018-05-08T04:57:49.392Z,3516
2018-05-08T04:58:59.135Z,3676
2018-05-08T05:00:08.613Z,3680
2018-05-08T05:01:18.633Z,3500
2018-05-08T05:02:28.649Z,3484
2018-05-08T05:03:38.658Z,3576
2018-05-08T05:04:48.679Z,3632
2018-05-08T05:05:58.691Z,3724
2018-05-08T05:07:08.680Z,3676
2018-05-08T05:08:18.420Z,3772
2018-05-08T05:09:27.687Z,4056
2018-05-08T05:10:37.435Z,4436
2018-05-08T05:11:47.179Z,4832
2018-05-08T05:12:56.920Z,4872
2018-05-08T05:14:06.450Z,4228
2018-05-08T05:15:16.193Z,3720
2018-05-08T05:16:25.945Z,3532
2018-05-08T05:17:35.953Z,3716
2018-05-08T05:18:45.714Z,3892
2018-05-08T05:19:55.191Z,3556
2018-05-08T05:21:04.942Z,3412
2018-05-08T05:22:14.695Z,3628
2018-05-08T05:23:24.808Z,3544
2018-05-08T05:24:35.094Z,3928
2018-05-08T05:25:44.932Z,4036
2018-05-08T05:26:54.675Z,4040
2018-05-08T05:28:04.151Z,4136
2018-05-08T05:29:14.007Z,4024
2018-05-08T05:30:24.022Z,3932
2018-05-08T05:31:33.832Z,3840
2018-05-08T05:32:42.988Z,3608
2018-05-08T05:33:52.735Z,3672
2018-05-08T05:35:02.478Z,3708
2018-05-08T05:36:12.489Z,3772
2018-05-08T05:37:21.965Z,4164
2018-05-08T05:38:31.176Z,4540
2018-05-08T05:39:41.198Z,4760
2018-05-08T05:40:51.006Z,4936
2018-05-08T05:42:00.760Z,5008
2018-05-08T05:43:10.242Z,4760
2018-05-08T05:44:20.012Z,4556
2018-05-08T05:45:29.754Z,4412
2018-05-08T05:46:39.765Z,4260
2018-05-08T05:47:49.506Z,4768
2018-05-08T05:48:59.251Z,5452
2018-05-08T05:50:09.040Z,5744
2018-05-08T05:51:18.787Z,5932
2018-05-08T05:52:28.808Z,5608
2018-05-08T05:53:38.827Z,4788
2018-05-08T05:54:48.924Z,4724
2018-05-08T05:55:58.939Z,4744
2018-05-08T05:57:08.416Z,4776
2018-05-08T05:58:18.171Z,4908
2018-05-08T05:59:28.187Z,5252
2018-05-08T06:00:38.194Z,5072
2018-05-08T06:01:48.206Z,4952
2018-05-08T06:02:57.952Z,4940
2018-05-08T06:04:08.046Z,4900
2018-05-08T06:05:18.069Z,4956
2018-05-08T06:06:28.051Z,5240
2018-05-08T06:07:38.201Z,5760
2018-05-08T06:08:47.405Z,6560
2018-05-08T06:09:57.151Z,7004
2018-05-08T06:11:07.166Z,6836
2018-05-08T06:12:17.196Z,6220
2018-05-08T06:13:26.944Z,5496
2018-05-08T06:14:36.684Z,5052
2018-05-08T06:15:46.428Z,4908
2018-05-08T06:16:56.443Z,5000
2018-05-08T06:18:06.192Z,4948
2018-05-08T06:19:16.207Z,5004
2018-05-08T06:20:26.185Z,4908
2018-05-08T06:21:36.099Z,4800
2018-05-08T06:22:45.839Z,5132
2018-05-08T06:23:55.854Z,5404
2018-05-08T06:25:05.604Z,5608
2018-05-08T06:26:15.365Z,5336
2018-05-08T06:27:25.167Z,5336
2018-05-08T06:28:34.207Z,5264
2018-05-08T06:29:44.125Z,5304
2018-05-08T06:30:54.136Z,5276
2018-05-08T06:32:03.920Z,5596
2018-05-08T06:33:13.724Z,5600
2018-05-08T06:34:24.048Z,5296
2018-05-08T06:35:33.595Z,5436
2018-05-08T06:36:43.605Z,5648
2018-05-08T06:37:53.627Z,5492
2018-05-08T06:39:03.768Z,5736
2018-05-08T06:40:13.765Z,5616
2018-05-08T06:41:23.508Z,5500
2018-05-08T06:42:32.983Z,5580
2018-05-08T06:43:42.994Z,5648
2018-05-08T06:44:53.151Z,5824
2018-05-08T06:46:02.624Z,6096
2018-05-08T06:47:12.390Z,6380
2018-05-08T06:48:22.148Z,6628
2018-05-08T06:49:32.171Z,6916
2018-05-08T06:50:42.295Z,6992
2018-05-08T06:51:52.314Z,6988
2018-05-08T06:53:02.062Z,7100
2018-05-08T06:54:12.079Z,7108
2018-05-08T06:55:22.189Z,7080
2018-05-08T06:56:31.666Z,7036
2018-05-08T06:57:41.687Z,6924
2018-05-08T06:58:51.170Z,6676
2018-05-08T07:00:01.183Z,6520
2018-05-08T07:01:10.936Z,6592
2018-05-08T07:02:20.968Z,6280
2018-05-08T07:03:30.713Z,6560
2018-05-08T07:04:40.458Z,6304
2018-05-08T07:05:50.485Z,5992
2018-05-08T07:07:00.503Z,6072
2018-05-08T07:08:10.256Z,6220
2018-05-08T07:09:19.757Z,6200
2018-05-08T07:10:29.771Z,6180
2018-05-08T07:11:39.785Z,6072
2018-05-08T07:12:49.535Z,6176
2018-05-08T07:13:59.559Z,6364
2018-05-08T07:15:08.851Z,6544
2018-05-08T07:16:19.090Z,6728
2018-05-08T07:17:29.111Z,6924
2018-05-08T07:18:39.181Z,7132
2018-05-08T07:19:48.930Z,7352
2018-05-08T07:20:58.680Z,7420
2018-05-08T07:22:08.697Z,7424
2018-05-08T07:23:17.911Z,7276
2018-05-08T07:24:27.930Z,7148
2018-05-08T07:25:37.674Z,7200
2018-05-08T07:26:47.156Z,7436
2018-05-08T07:27:56.900Z,7712
2018-05-08T07:29:06.382Z,7872
2018-05-08T07:30:16.489Z,7840
2018-05-08T07:31:26.246Z,7652
2018-05-08T07:32:35.999Z,8112
2018-05-08T07:33:46.017Z,8264
2018-05-08T07:34:55.771Z,8136
2018-05-08T07:36:05.765Z,8032
2018-05-08T07:37:15.353Z,7996
2018-05-08T07:38:25.155Z,7804
2018-05-08T07:39:35.176Z,7592
2018-05-08T07:40:45.263Z,7292
2018-05-08T07:41:55.282Z,6920
2018-05-08T07:43:05.332Z,6488
2018-05-08T07:44:15.094Z,6660
2018-05-08T07:45:24.984Z,6624
2018-05-08T07:46:35.034Z,6292
2018-05-08T07:47:44.788Z,6492
2018-05-08T07:48:54.534Z,6384
2018-05-08T07:50:04.549Z,6456
2018-05-08T07:51:14.563Z,6292
2018-05-08T07:52:24.579Z,6528
2018-05-08T07:53:34.591Z,6752
2018-05-08T07:54:44.652Z,6820
2018-05-08T07:55:54.665Z,6860
2018-05-08T07:57:04.413Z,6876
2018-05-08T07:58:14.425Z,6976
2018-05-08T07:59:24.439Z,7020
2018-05-08T08:00:34.465Z,6908
2018-05-08T08:01:44.221Z,6924
2018-05-08T08:02:54.228Z,7124
2018-05-08T08:04:04.091Z,7232
2018-05-08T08:05:13.851Z,7076
2018-05-08T08:06:23.875Z,6840
2018-05-08T08:07:33.837Z,6808
2018-05-08T08:08:44.052Z,7096
2018-05-08T08:09:53.550Z,7156
2018-05-08T08:11:03.032Z,6884
2018-05-08T08:12:12.509Z,6160
2018-05-08T08:13:21.988Z,5568
2018-05-08T08:14:31.468Z,5696
2018-05-08T08:15:41.213Z,6040
2018-05-08T08:16:50.426Z,6544
2018-05-08T08:18:00.464Z,6528
2018-05-08T08:19:09.952Z,6748
2018-05-08T08:20:19.967Z,6996
2018-05-08T08:21:29.722Z,6960
2018-05-08T08:22:39.480Z,6760
2018-05-08T08:23:49.188Z,6588
2018-05-08T08:24:59.391Z,6536
2018-05-08T08:26:08.606Z,6852
2018-05-08T08:27:18.627Z,7044
2018-05-08T08:28:28.379Z,7464
2018-05-08T08:29:38.332Z,7248
2018-05-08T08:30:48.429Z,7316
2018-05-08T08:31:58.453Z,7032
2018-05-08T08:33:08.200Z,7188
2018-05-08T08:34:17.422Z,6636
2018-05-08T08:35:27.546Z,6468
2018-05-08T08:36:37.564Z,6324
2018-05-08T08:37:47.314Z,6356
2018-05-08T08:38:57.326Z,6404
2018-05-08T08:40:07.072Z,6680
2018-05-08T08:41:17.092Z,6844
2018-05-08T08:42:27.218Z,6984
2018-05-08T08:43:36.967Z,7472
2018-05-08T08:44:46.447Z,8028
2018-05-08T08:45:55.930Z,7960
2018-05-08T08:47:05.412Z,7948
2018-05-08T08:48:15.427Z,7864
2018-05-08T08:49:24.909Z,8084
2018-05-08T08:50:34.932Z,7364
2018-05-08T08:51:44.953Z,7740
2018-05-08T08:52:54.719Z,7924
2018-05-08T08:54:04.474Z,8188
2018-05-08T08:55:14.507Z,8336
2018-05-08T08:56:24.535Z,8480
2018-05-08T08:57:34.555Z,8484
2018-05-08T08:58:43.767Z,8408
2018-05-08T08:59:53.516Z,8588
2018-05-08T09:01:03.536Z,8684
2018-05-08T09:02:13.282Z,8768
2018-05-08T09:03:23.298Z,8728
2018-05-08T09:04:33.056Z,8752
2018-05-08T09:05:42.815Z,8764
2018-05-08T09:06:52.030Z,8660
2018-05-08T09:08:01.526Z,8464
2018-05-08T09:09:11.020Z,8220
2018-05-08T09:10:21.135Z,7856
2018-05-08T09:11:31.181Z,7588
2018-05-08T09:12:40.660Z,7444
2018-05-08T09:13:50.149Z,7364
2018-05-08T09:15:00.169Z,7304
2018-05-08T09:16:10.186Z,7284
2018-05-08T09:17:19.936Z,7332
2018-05-08T09:18:29.685Z,7376
2018-05-08T09:19:39.443Z,7408
2018-05-08T09:20:48.935Z,7456
2018-05-08T09:21:58.945Z,7532
2018-05-08T09:23:08.971Z,7528
2018-05-08T09:24:18.728Z,7508
2018-05-08T09:25:28.497Z,7556
2018-05-08T09:26:38.247Z,7552
2018-05-08T09:27:48.426Z,7592
2018-05-08T09:28:58.447Z,7588
2018-05-08T09:30:07.928Z,7628
2018-05-08T09:31:17.946Z,7692
2018-05-08T09:32:27.693Z,7796
2018-05-08T09:33:37.447Z,7892
2018-05-08T09:34:47.192Z,7980
2018-05-08T09:35:57.211Z,8020
2018-05-08T09:37:07.235Z,8056
2018-05-08T09:38:17.254Z,8116
2018-05-08T09:39:27.005Z,8232
2018-05-08T09:40:37.025Z,8304
2018-05-08T09:41:47.038Z,8408
2018-05-08T09:42:56.257Z,8512
2018-05-08T09:44:06.305Z,8588
2018-05-08T09:45:16.434Z,8668
2018-05-08T09:46:26.207Z,8712
2018-05-08T09:47:35.972Z,8744
2018-05-08T09:48:46.032Z,8836
2018-05-08T09:49:56.172Z,8924
2018-05-08T09:51:06.194Z,9076
2018-05-08T09:52:15.687Z,9288
2018-05-08T09:53:25.175Z,9444
2018-05-08T09:54:35.215Z,9112
2018-05-08T09:55:44.974Z,8532
2018-05-08T09:56:54.999Z,8264
2018-05-08T09:58:05.033Z,8728
2018-05-08T09:59:15.051Z,8856
2018-05-08T10:00:24.533Z,8988
2018-05-08T10:01:34.557Z,8796
2018-05-08T10:02:44.369Z,8856
2018-05-08T10:03:54.121Z,8952
2018-05-08T10:05:03.874Z,9072
2018-05-08T10:06:13.898Z,9016
2018-05-08T10:07:23.646Z,9012
2018-05-08T10:08:33.130Z,9644
2018-05-08T10:09:42.617Z,9696
2018-05-08T10:10:52.368Z,10016
2018-05-08T10:12:02.406Z,9892
2018-05-08T10:13:11.893Z,9860
2018-05-08T10:14:21.645Z,9996
2018-05-08T10:15:31.395Z,9800
2018-05-08T10:16:41.418Z,10036
2018-05-08T10:17:51.170Z,9888
2018-05-08T10:19:00.948Z,10120
2018-05-08T10:20:10.701Z,10112
2018-05-08T10:21:20.728Z,10016
2018-05-08T10:22:30.743Z,9904
2018-05-08T10:23:40.502Z,9888
2018-05-08T10:24:50.258Z,9900
2018-05-08T10:26:00.281Z,9832
2018-05-08T10:27:10.316Z,9864
2018-05-08T10:28:20.343Z,9984
2018-05-08T10:29:30.399Z,10044
2018-05-08T10:30:40.228Z,9992
2018-05-08T10:31:49.728Z,9872
2018-05-08T10:32:59.964Z,9860
2018-05-08T10:34:09.743Z,9872
2018-05-08T10:35:19.503Z,9844
2018-05-08T10:36:29.527Z,9868
2018-05-08T10:37:39.427Z,9928
2018-05-08T10:38:49.185Z,9968
2018-05-08T10:39:59.212Z,9980
2018-05-08T10:41:08.964Z,10012
2018-05-08T10:42:18.998Z,10076
2018-05-08T10:43:29.048Z,10172
2018-05-08T10:44:39.064Z,10288
2018-05-08T10:45:48.816Z,10356
2018-05-08T10:46:58.839Z,10376
2018-05-08T10:48:08.597Z,11056
2018-05-08T10:49:18.610Z,11088
2018-05-08T10:50:28.375Z,11120
2018-05-08T10:51:37.869Z,11136
2018-05-08T10:52:47.624Z,11168
2018-05-08T10:53:57.379Z,11304
2018-05-08T10:55:07.515Z,11344
2018-05-08T10:56:17.269Z,11236
2018-05-08T10:57:27.026Z,11212
2018-05-08T10:58:36.811Z,11260
2018-05-08T10:59:46.568Z,11356
2018-05-08T11:00:56.598Z,11356
2018-05-08T11:02:06.351Z,11408
2018-05-08T11:03:16.101Z,11344
2018-05-08T11:04:26.126Z,11444
2018-05-08T11:05:35.873Z,11376
2018-05-08T11:06:45.366Z,11536
2018-05-08T11:07:55.462Z,11764
2018-05-08T11:09:05.549Z,11676
2018-05-08T11:10:15.038Z,11716
2018-05-08T11:11:25.065Z,11964
2018-05-08T11:12:35.330Z,12096
2018-05-08T11:13:45.348Z,12196
2018-05-08T11:14:55.098Z,12388
2018-05-08T11:16:04.859Z,12452
2018-05-08T11:17:14.345Z,12528
2018-05-08T11:18:24.373Z,12928
2018-05-08T11:19:34.416Z,13176
2018-05-08T11:20:43.961Z,13508
2018-05-08T11:21:53.730Z,13844
2018-05-08T11:23:03.758Z,14716
2018-05-08T11:24:13.239Z,17408
2018-05-08T11:25:23.263Z,32448
2018-05-08T11:26:33.587Z,64992
2018-05-08T11:27:43.469Z,69920
2018-05-08T11:28:53.492Z,71232
2018-05-08T11:30:03.514Z,72672
2018-05-08T11:31:12.999Z,72928
2018-05-08T11:32:22.223Z,76704
2018-05-08T11:33:32.248Z,74528
2018-05-08T11:34:42.003Z,73568
2018-05-08T11:35:52.029Z,73920
2018-05-08T11:37:01.789Z,74496
2018-05-08T11:38:11.035Z,73152
2018-05-08T11:39:21.399Z,73984
2018-05-08T11:40:31.011Z,71808
2018-05-08T11:41:40.503Z,69600
2018-05-08T11:42:50.571Z,66944
2018-05-08T11:44:00.074Z,73664
2018-05-08T11:45:09.837Z,77376
2018-05-08T11:46:19.601Z,78624
2018-05-08T11:47:29.093Z,76896
2018-05-08T11:48:39.121Z,76704
2018-05-08T11:49:48.615Z,77024
2018-05-08T11:50:58.453Z,74880
2018-05-08T11:52:07.947Z,75712
2018-05-08T11:53:18.076Z,74368
2018-05-08T11:54:28.112Z,66240
2018-05-08T11:55:37.882Z,54112
2018-05-08T11:56:47.924Z,63424
2018-05-08T11:57:57.711Z,52832
2018-05-08T11:59:07.748Z,49440
2018-05-08T12:00:17.242Z,54656
2018-05-08T12:01:27.014Z,61536
2018-05-08T12:02:36.908Z,44416
2018-05-08T12:03:46.762Z,43712
2018-05-08T12:04:56.800Z,63424
2018-05-08T12:06:06.576Z,66592
2018-05-08T12:07:16.739Z,62976
2018-05-08T12:08:26.777Z,56704
2018-05-08T12:09:36.806Z,60800
2018-05-08T12:10:46.893Z,62784
2018-05-08T12:11:56.926Z,67200
2018-05-08T12:13:06.427Z,65536
2018-05-08T12:14:16.460Z,67712
2018-05-08T12:15:25.963Z,72544
2018-05-08T12:16:35.734Z,73920
2018-05-08T12:17:45.796Z,70656
2018-05-08T12:18:55.828Z,70464
2018-05-08T12:20:05.885Z,71520
2018-05-08T12:21:15.930Z,76544
2018-05-08T12:22:25.434Z,74048
2018-05-08T12:23:35.208Z,76512
2018-05-08T12:24:44.437Z,76992
2018-05-08T12:25:54.206Z,79200
2018-05-08T12:27:03.981Z,76896
2018-05-08T12:28:13.748Z,75584
2018-05-08T12:29:23.518Z,77568
2018-05-08T12:30:33.309Z,78560
2018-05-08T12:31:43.183Z,75296
2018-05-08T12:32:53.220Z,71680
2018-05-08T12:34:03.253Z,69728
2018-05-08T12:35:13.033Z,71008
2018-05-08T12:36:22.265Z,70624
2018-05-08T12:37:32.032Z,71872
2018-05-08T12:38:41.794Z,71776
2018-05-08T12:39:51.571Z,69760
2018-05-08T12:41:01.338Z,64896
2018-05-08T12:42:11.694Z,66624
2018-05-08T12:43:21.807Z,69056
2018-05-08T12:44:31.839Z,67168
2018-05-08T12:45:42.173Z,70272
2018-05-08T12:46:51.133Z,61632
2018-05-08T12:48:00.910Z,54144
2018-05-08T12:49:10.947Z,63712
2018-05-08T12:50:21.020Z,47264
2018-05-08T12:51:31.114Z,54656
2018-05-08T12:52:40.897Z,59296
2018-05-08T12:53:50.672Z,62016
2018-05-08T12:55:00.509Z,59584
2018-05-08T12:56:09.905Z,58784
2018-05-08T12:57:19.685Z,60960
2018-05-08T12:58:29.720Z,57984
2018-05-08T12:59:39.770Z,52000
2018-05-08T13:00:49.279Z,50208
2018-05-08T13:01:58.776Z,50720
2018-05-08T13:03:08.935Z,51648
2018-05-08T13:04:18.699Z,55584
2018-05-08T13:05:28.703Z,54464
2018-05-08T13:06:38.761Z,51776
2018-05-08T13:07:48.526Z,50944
2018-05-08T13:08:58.028Z,57536
2018-05-08T13:10:08.078Z,59648
2018-05-08T13:11:17.845Z,56352
2018-05-08T13:12:27.950Z,42784
2018-05-08T13:13:37.709Z,43424
2018-05-08T13:14:47.474Z,42048
2018-05-08T13:15:57.501Z,43712
2018-05-08T13:17:06.993Z,49280
2018-05-08T13:18:17.168Z,42848
2018-05-08T13:19:26.819Z,41024
2018-05-08T13:20:36.585Z,40064
2018-05-08T13:21:46.345Z,38400
2018-05-08T13:22:56.383Z,34912
2018-05-08T13:24:06.145Z,37056
2018-05-08T13:25:15.655Z,39008
2018-05-08T13:26:25.691Z,36512
2018-05-08T13:27:35.181Z,36704
2018-05-08T13:28:44.944Z,36928
2018-05-08T13:29:54.711Z,39296
2018-05-08T13:31:04.256Z,38976
2018-05-08T13:32:13.811Z,43776
2018-05-08T13:33:23.575Z,48032
2018-05-08T13:34:33.608Z,58144
2018-05-08T13:35:43.372Z,65632
2018-05-08T13:36:53.489Z,72192
2018-05-08T13:38:03.252Z,74048
2018-05-08T13:39:13.383Z,72352
2018-05-08T13:40:23.439Z,67616
2018-05-08T13:41:32.932Z,62400
2018-05-08T13:42:41.886Z,60992
2018-05-08T13:43:51.672Z,58976
2018-05-08T13:45:01.446Z,51936
2018-05-08T13:46:10.672Z,51136
2018-05-08T13:47:20.435Z,47648
2018-05-08T13:48:30.197Z,49600
2018-05-08T13:49:40.245Z,54688
2018-05-08T13:50:50.009Z,53408
2018-05-08T13:51:59.230Z,60160
2018-05-08T13:53:08.721Z,63360
2018-05-08T13:54:18.205Z,71360
2018-05-08T13:55:28.239Z,70880
2018-05-08T13:56:37.731Z,68928
2018-05-08T13:57:47.573Z,69312
2018-05-08T13:58:57.602Z,69728
2018-05-08T14:00:07.362Z,73984
2018-05-08T14:01:17.120Z,72320
2018-05-08T14:02:27.164Z,58688
2018-05-08T14:03:36.925Z,54080
2018-05-08T14:04:46.687Z,48352
2018-05-08T14:05:56.451Z,58304
2018-05-08T14:07:06.129Z,56448
2018-05-08T14:08:16.163Z,46784
2018-05-08T14:09:26.193Z,51488
2018-05-08T14:10:36.235Z,52160
2018-05-08T14:11:45.996Z,54944
2018-05-08T14:12:55.770Z,52672
2018-05-08T14:14:05.055Z,46336
2018-05-08T14:15:14.815Z,46784
2018-05-08T14:16:24.639Z,44224
2018-05-08T14:17:34.135Z,43424
2018-05-08T14:18:44.260Z,45632
2018-05-08T14:19:54.284Z,49408
2018-05-08T14:21:03.776Z,48608
2018-05-08T14:22:13.813Z,53472
2018-05-08T14:23:23.583Z,56704
2018-05-08T14:24:33.346Z,55904
2018-05-08T14:25:43.371Z,54016
2018-05-08T14:26:53.400Z,54496
2018-05-08T14:28:03.425Z,50144
2018-05-08T14:29:13.193Z,48000
2018-05-08T14:30:22.479Z,47680
2018-05-08T14:31:32.651Z,50400
2018-05-08T14:32:42.727Z,48992
2018-05-08T14:33:52.775Z,51808
2018-05-08T14:35:02.807Z,57632
2018-05-08T14:36:12.572Z,58912
2018-05-08T14:37:22.613Z,63392
2018-05-08T14:38:32.649Z,64160
2018-05-08T14:39:42.829Z,67136
2018-05-08T14:40:52.943Z,66496
2018-05-08T14:42:02.436Z,70560
2018-05-08T14:43:12.463Z,79808
2018-05-08T14:44:22.498Z,80032
2018-05-08T14:45:31.988Z,77952
2018-05-08T14:46:41.756Z,75072
2018-05-08T14:47:51.522Z,77440
2018-05-08T14:49:01.019Z,84256
2018-05-08T14:50:11.051Z,88416
2018-05-08T14:51:21.082Z,87200
2018-05-08T14:52:30.843Z,92576
2018-05-08T14:53:40.602Z,92288
2018-05-08T14:54:50.641Z,92576
2018-05-08T14:56:00.402Z,83232
2018-05-08T14:57:10.445Z,92192
2018-05-08T14:58:19.677Z,90944
2018-05-08T14:59:29.719Z,87680
2018-05-08T15:00:39.221Z,88096
2018-05-08T15:01:48.715Z,84224
2018-05-08T15:02:58.759Z,83552
2018-05-08T15:04:08.524Z,87136
2018-05-08T15:05:18.377Z,88256
2018-05-08T15:06:28.401Z,89088
2018-05-08T15:07:38.432Z,81536
2018-05-08T15:08:48.459Z,82496
2018-05-08T15:09:58.488Z,72128
2018-05-08T15:11:08.250Z,52672
2018-05-08T15:12:18.275Z,67680
2018-05-08T15:13:28.310Z,67904
2018-05-08T15:14:38.340Z,66784
2018-05-08T15:15:48.099Z,59040
2018-05-08T15:16:57.326Z,80352
2018-05-08T15:18:07.090Z,78464
2018-05-08T15:19:16.855Z,82560
2018-05-08T15:20:26.623Z,81824
2018-05-08T15:21:36.646Z,79264
2018-05-08T15:22:46.405Z,81792
2018-05-08T15:23:56.438Z,83840
2018-05-08T15:25:05.931Z,81952
2018-05-08T15:26:15.691Z,70592
2018-05-08T15:27:25.460Z,70112
2018-05-08T15:28:35.490Z,74016
2018-05-08T15:29:45.516Z,77568
2018-05-08T15:30:55.274Z,77440
2018-05-08T15:32:05.048Z,76352
2018-05-08T15:33:14.806Z,74048
2018-05-08T15:34:24.598Z,73472
2018-05-08T15:35:33.824Z,71488
2018-05-08T15:36:43.584Z,72288
2018-05-08T15:37:53.612Z,73728
2018-05-08T15:39:03.386Z,74336